createdAt,value
2023-11-02T00:01:48.829Z,91.55
2023-11-02T00:04:51.522Z,92.17
2023-11-02T00:07:54.064Z,92.50
2023-11-02T00:10:57.998Z,92.07
2023-11-02T00:14:01.402Z,92.22
2023-11-02T00:17:04.008Z,92.07
2023-11-02T00:20:09.152Z,92.15
2023-11-02T00:23:13.661Z,92.26
2023-11-02T00:26:17.917Z,92.53
2023-11-02T00:29:20.478Z,92.09
2023-11-02T00:32:23.179Z,91.94
2023-11-02T00:35:26.366Z,91.84
2023-11-02T00:38:29.444Z,92.44
2023-11-02T00:41:33.331Z,91.76
2023-11-02T00:44:35.873Z,91.71
2023-11-02T00:47:38.508Z,91.56
2023-11-02T00:51:20.663Z,91.23
2023-11-02T00:54:56.193Z,90.99
2023-11-02T00:58:00.115Z,91.57
2023-11-02T01:01:06.457Z,90.98
2023-11-02T01:04:40.081Z,91.30
2023-11-02T01:07:42.762Z,90.60
2023-11-02T01:10:45.620Z,90.88
2023-11-02T01:13:49.574Z,90.70
2023-11-02T01:16:52.197Z,90.81
2023-11-02T01:19:56.740Z,90.47
2023-11-02T01:23:00.460Z,90.62
2023-11-02T01:26:03.997Z,90.34
2023-11-02T01:29:07.909Z,89.86
2023-11-02T01:32:10.478Z,90.32
2023-11-02T01:35:37.972Z,89.42
2023-11-02T01:38:40.696Z,89.78
2023-11-02T01:41:45.387Z,89.43
2023-11-02T01:44:54.414Z,88.69
2023-11-02T01:48:02.514Z,88.67
2023-11-02T01:51:06.359Z,89.06
2023-11-02T01:54:11.287Z,88.92
2023-11-02T01:57:16.252Z,88.67
2023-11-02T02:00:22.863Z,88.98
2023-11-02T02:03:28.742Z,88.96
2023-11-02T02:06:36.944Z,88.87
2023-11-02T02:09:51.388Z,88.22
2023-11-02T02:13:11.112Z,88.96
2023-11-02T02:16:17.492Z,88.09
2023-11-02T02:19:35.228Z,88.85
2023-11-02T02:22:43.943Z,88.88
2023-11-02T02:25:51.708Z,88.55
2023-11-02T02:29:15.776Z,88.88
2023-11-02T02:32:34.306Z,88.29
2023-11-02T02:35:39.981Z,88.09
2023-11-02T02:38:45.664Z,88.21
2023-11-02T02:41:48.245Z,87.96
2023-11-02T02:44:50.846Z,87.86
2023-11-02T02:47:53.497Z,87.97
2023-11-02T02:50:58.851Z,87.47
2023-11-02T02:54:03.868Z,87.30
2023-11-02T02:57:06.956Z,88.14
2023-11-02T03:00:10.764Z,87.44
2023-11-02T03:03:13.939Z,87.09
2023-11-02T03:06:18.425Z,87.52
2023-11-02T03:09:22.316Z,87.37
2023-11-02T03:12:26.278Z,86.63
2023-11-02T03:15:31.101Z,87.13
2023-11-02T03:18:34.283Z,86.62
2023-11-02T03:21:38.258Z,86.07
2023-11-02T03:24:46.338Z,86.27
2023-11-02T03:27:59.435Z,86.10
2023-11-02T03:31:09.272Z,86.11
2023-11-02T03:34:15.989Z,86.05
2023-11-02T03:37:23.080Z,84.96
2023-11-02T03:40:31.885Z,85.28
2023-11-02T03:43:37.424Z,85.17
2023-11-02T03:46:43.990Z,85.29
2023-11-02T03:49:49.747Z,84.85
2023-11-02T03:53:02.131Z,84.39
2023-11-02T03:56:13.030Z,83.61
2023-11-02T03:59:18.137Z,83.45
2023-11-02T04:02:26.093Z,83.33
2023-11-02T04:05:29.503Z,83.60
2023-11-02T04:08:34.139Z,82.92
2023-11-02T04:11:39.335Z,82.30
2023-11-02T04:14:41.905Z,82.32
2023-11-02T04:17:44.526Z,81.88
2023-11-02T04:20:52.674Z,81.49
2023-11-02T04:23:56.784Z,80.37
2023-11-02T04:26:59.533Z,79.90
2023-11-02T04:30:02.215Z,80.08
2023-11-02T04:33:05.219Z,79.11
2023-11-02T04:36:08.579Z,78.77
2023-11-02T04:39:12.572Z,78.13
2023-11-02T04:42:16.196Z,76.64
2023-11-02T04:45:18.830Z,76.77
2023-11-02T04:48:21.984Z,76.58
2023-11-02T04:51:24.594Z,76.26
2023-11-02T04:54:28.778Z,76.84
2023-11-02T04:57:31.439Z,76.23
2023-11-02T05:00:34.117Z,77.03
2023-11-02T05:03:36.833Z,76.27
2023-11-02T05:06:40.013Z,76.43
2023-11-02T05:09:43.987Z,75.43
2023-11-02T05:12:46.706Z,75.49
2023-11-02T05:15:56.105Z,75.03
2023-11-02T05:18:59.571Z,75.61
2023-11-02T05:22:02.604Z,74.88
2023-11-02T05:25:08.957Z,75.21
2023-11-02T05:28:11.669Z,76.58
2023-11-02T05:31:14.235Z,76.51
2023-11-02T05:34:17.046Z,76.41
2023-11-02T05:37:19.622Z,77.39
2023-11-02T05:40:23.581Z,77.81
2023-11-02T05:43:26.153Z,78.81
2023-11-02T05:46:29.049Z,78.65
2023-11-02T05:49:31.732Z,79.79
2023-11-02T05:52:35.181Z,80.31
2023-11-02T05:55:39.145Z,81.59
2023-11-02T05:58:41.857Z,83.17
2023-11-02T06:01:45.817Z,84.26
2023-11-02T06:04:48.497Z,84.75
2023-11-02T06:07:51.121Z,85.14
2023-11-02T06:10:55.031Z,85.17
2023-11-02T06:13:59.133Z,86.30
2023-11-02T06:17:02.106Z,86.48
2023-11-02T06:20:07.517Z,85.88
2023-11-02T06:23:10.155Z,85.84
2023-11-02T06:26:14.865Z,86.13
2023-11-02T06:29:17.479Z,86.44
2023-11-02T06:32:20.093Z,85.79
2023-11-02T06:35:22.686Z,86.77
2023-11-02T06:38:25.362Z,87.35
2023-11-02T06:41:29.347Z,87.45
2023-11-02T06:44:31.963Z,88.15
2023-11-02T06:47:34.587Z,88.65
2023-11-02T06:50:37.229Z,89.03
2023-11-02T06:53:39.872Z,88.69
2023-11-02T06:56:43.926Z,89.27
2023-11-02T06:59:46.514Z,89.14
2023-11-02T07:02:49.101Z,89.13
2023-11-02T07:05:51.659Z,89.12
2023-11-02T07:08:54.280Z,90.03
2023-11-02T07:11:58.270Z,89.12
2023-11-02T07:15:00.844Z,89.63
2023-11-02T07:18:03.613Z,89.57
2023-11-02T07:21:07.416Z,89.14
2023-11-02T07:24:10.293Z,89.16
2023-11-02T07:27:14.220Z,88.87
2023-11-02T07:30:16.894Z,89.17
2023-11-02T07:33:19.621Z,88.75
2023-11-02T07:36:25.988Z,89.29
2023-11-02T07:39:30.081Z,89.43
2023-11-02T07:42:34.090Z,90.42
2023-11-02T07:45:36.991Z,91.12
2023-11-02T07:48:41.160Z,91.81
2023-11-02T07:51:44.024Z,91.71
2023-11-02T07:54:47.028Z,92.62
2023-11-02T07:57:51.014Z,93.21
2023-11-02T08:00:54.399Z,93.68
2023-11-02T08:03:57.081Z,93.23
2023-11-02T08:06:59.717Z,93.77
2023-11-02T08:10:02.895Z,93.22
2023-11-02T08:13:06.906Z,92.98
2023-11-02T08:16:10.787Z,92.76
2023-11-02T08:19:14.399Z,91.57
2023-11-02T08:22:17.000Z,90.56
2023-11-02T08:25:19.634Z,89.47
2023-11-02T08:28:23.563Z,89.14
2023-11-02T08:31:26.290Z,87.25
2023-11-02T08:34:28.914Z,85.17
2023-11-02T08:37:31.632Z,83.69
2023-11-02T08:40:35.602Z,82.34
2023-11-02T08:43:39.601Z,81.60
2023-11-02T08:46:42.312Z,80.99
2023-11-02T08:49:45.610Z,80.99
2023-11-02T08:52:48.567Z,80.49
2023-11-02T08:55:51.239Z,81.07
2023-11-02T08:58:55.550Z,80.66
2023-11-02T09:01:59.746Z,79.95
2023-11-02T09:05:02.639Z,80.07
2023-11-02T09:08:05.656Z,79.90
2023-11-02T09:11:08.281Z,80.96
2023-11-02T09:14:12.662Z,81.69
2023-11-02T09:17:15.305Z,82.44
2023-11-02T09:20:17.929Z,82.22
2023-11-02T09:23:20.609Z,82.43
2023-11-02T09:26:23.234Z,83.41
2023-11-02T09:29:27.956Z,83.06
2023-11-02T09:32:32.148Z,83.80
2023-11-02T09:35:35.370Z,83.38
2023-11-02T09:38:38.021Z,84.03
2023-11-02T09:41:40.618Z,84.09
2023-11-02T09:44:45.000Z,84.38
2023-11-02T09:47:47.720Z,83.88
2023-11-02T09:50:50.409Z,83.89
2023-11-02T09:53:53.247Z,83.55
2023-11-02T09:56:56.104Z,84.28
2023-11-02T10:00:00.196Z,84.65
2023-11-02T10:03:04.156Z,84.81
2023-11-02T10:06:08.826Z,84.45
2023-11-02T10:09:12.305Z,83.98
2023-11-02T10:12:15.001Z,83.05
2023-11-02T10:15:19.105Z,81.64
2023-11-02T10:18:22.671Z,79.70
2023-11-02T10:21:25.493Z,80.02
2023-11-02T10:24:31.698Z,79.71
2023-11-02T10:27:36.934Z,80.82
2023-11-02T10:30:40.969Z,82.09
2023-11-02T10:33:43.658Z,81.93
2023-11-02T10:36:46.274Z,81.69
2023-11-02T10:39:49.317Z,81.72
2023-11-02T10:42:52.355Z,81.15
2023-11-02T10:45:56.707Z,80.45
2023-11-02T10:49:00.201Z,80.70
2023-11-02T10:52:03.498Z,80.73
2023-11-02T10:55:10.637Z,80.31
2023-11-02T10:58:13.921Z,80.04
2023-11-02T11:01:18.150Z,79.80
2023-11-02T11:04:20.802Z,79.12
2023-11-02T11:07:23.563Z,78.29
2023-11-02T11:10:26.215Z,77.70
2023-11-02T11:13:28.791Z,77.50
2023-11-02T11:16:32.867Z,76.70
2023-11-02T11:19:35.897Z,76.10
2023-11-02T11:22:39.022Z,76.37
2023-11-02T11:25:57.723Z,75.72
2023-11-02T11:29:00.317Z,75.53
2023-11-02T11:32:04.995Z,75.19
2023-11-02T11:35:14.006Z,74.99
2023-11-02T11:38:37.253Z,75.20
2023-11-02T11:41:45.093Z,74.35
2023-11-02T11:44:47.706Z,74.27
2023-11-02T11:47:51.663Z,73.61
2023-11-02T11:50:55.646Z,72.55
2023-11-02T11:54:11.915Z,73.19
2023-11-02T11:57:47.236Z,73.63
2023-11-02T12:01:15.902Z,74.20
2023-11-02T12:04:49.615Z,74.29
2023-11-02T12:07:52.205Z,74.13
2023-11-02T12:10:56.571Z,74.69
2023-11-02T12:14:01.458Z,74.03
2023-11-02T12:17:05.719Z,74.70
2023-11-02T12:20:11.587Z,74.62
2023-11-02T12:23:14.760Z,74.61
2023-11-02T12:26:20.633Z,75.47
2023-11-02T12:29:24.989Z,76.21
2023-11-02T12:32:27.951Z,76.82
2023-11-02T12:35:31.913Z,77.97
2023-11-02T12:38:44.735Z,79.48
2023-11-02T12:41:48.567Z,80.46
2023-11-02T12:44:52.237Z,80.85
2023-11-02T12:47:54.875Z,82.68
2023-11-02T12:50:58.972Z,82.80
2023-11-02T12:54:09.678Z,83.50
2023-11-02T12:57:12.505Z,83.94
2023-11-02T13:00:16.052Z,84.52
2023-11-02T13:03:21.085Z,84.90
2023-11-02T13:06:28.305Z,85.79
2023-11-02T13:09:30.975Z,86.25
2023-11-02T13:12:35.468Z,86.39
2023-11-02T13:15:38.126Z,86.34
2023-11-02T13:18:49.088Z,86.80
2023-11-02T13:21:53.208Z,86.77
2023-11-02T13:24:58.494Z,86.60
2023-11-02T13:28:03.186Z,86.45
2023-11-02T13:31:10.002Z,87.17
2023-11-02T13:34:12.667Z,87.07
2023-11-02T13:37:16.665Z,87.29
2023-11-02T13:40:26.501Z,87.01
2023-11-02T13:43:29.545Z,86.76
2023-11-02T13:46:33.367Z,87.54
2023-11-02T13:49:37.872Z,87.15
2023-11-02T13:52:42.771Z,87.61
2023-11-02T13:55:45.747Z,86.92
2023-11-02T13:58:48.334Z,86.58
2023-11-02T14:01:50.952Z,85.32
2023-11-02T14:04:53.746Z,85.14
2023-11-02T14:07:57.837Z,85.45
2023-11-02T14:11:01.722Z,84.13
2023-11-02T14:14:06.900Z,83.08
2023-11-02T14:17:10.023Z,81.85
2023-11-02T14:20:13.338Z,80.62
2023-11-02T14:23:18.189Z,80.13
2023-11-02T14:26:21.553Z,79.49
2023-11-02T14:29:24.215Z,79.50
2023-11-02T14:32:26.807Z,78.03
2023-11-02T14:35:29.418Z,77.65
2023-11-02T14:38:33.656Z,77.51
2023-11-02T14:41:36.305Z,77.35
2023-11-02T14:44:39.245Z,76.77
2023-11-02T14:47:42.094Z,77.14
2023-11-02T14:50:45.008Z,76.36
2023-11-02T14:53:48.977Z,75.28
2023-11-02T14:56:51.594Z,75.47
2023-11-02T14:59:54.176Z,74.83
2023-11-02T15:02:57.452Z,74.47
2023-11-02T15:06:00.151Z,74.11
2023-11-02T15:09:09.758Z,74.40
2023-11-02T15:12:13.604Z,74.76
2023-11-02T15:15:16.373Z,74.69
2023-11-02T15:18:19.158Z,74.84
2023-11-02T15:21:21.827Z,75.06
2023-11-02T15:24:25.803Z,74.96
2023-11-02T15:27:30.515Z,74.85
2023-11-02T15:30:33.285Z,74.84
2023-11-02T15:33:36.403Z,76.22
2023-11-02T15:36:39.280Z,76.00
2023-11-02T15:39:45.337Z,76.71
2023-11-02T15:42:48.041Z,77.61
2023-11-02T15:45:50.959Z,77.25
2023-11-02T15:48:53.727Z,78.33
2023-11-02T15:51:56.420Z,78.63
2023-11-02T15:55:02.421Z,78.34
2023-11-02T15:58:05.429Z,78.64
2023-11-02T16:01:08.993Z,78.77
2023-11-02T16:04:11.629Z,78.58
2023-11-02T16:07:14.278Z,79.31
2023-11-02T16:10:20.554Z,78.98
2023-11-02T16:13:23.177Z,79.12
2023-11-02T16:16:25.749Z,79.11
2023-11-02T16:19:30.225Z,79.10
2023-11-02T16:22:33.038Z,79.74
2023-11-02T16:25:39.965Z,79.56
2023-11-02T16:28:42.642Z,79.51
2023-11-02T16:31:45.257Z,79.69
2023-11-02T16:34:58.204Z,79.85
2023-11-02T16:38:06.130Z,79.23
2023-11-02T16:41:10.132Z,79.61
2023-11-02T16:44:13.441Z,79.40
2023-11-02T16:47:16.383Z,79.89
2023-11-02T16:50:20.663Z,79.84
2023-11-02T16:53:23.968Z,79.49
2023-11-02T16:56:27.888Z,79.83
2023-11-02T16:59:30.496Z,80.39
2023-11-02T17:02:33.146Z,80.86
2023-11-02T17:05:35.801Z,81.18
2023-11-02T17:08:38.395Z,82.09
2023-11-02T17:11:42.315Z,82.09
2023-11-02T17:14:44.918Z,81.76
2023-11-02T17:17:47.570Z,81.99
2023-11-02T17:20:52.857Z,81.66
2023-11-02T17:23:55.520Z,80.77
2023-11-02T17:26:59.651Z,80.21
2023-11-02T17:30:02.312Z,79.35
2023-11-02T17:33:05.898Z,78.61
2023-11-02T17:36:09.064Z,78.34
2023-11-02T17:39:13.602Z,77.90
2023-11-02T17:42:19.125Z,76.99
2023-11-02T17:45:25.040Z,76.57
2023-11-02T17:48:28.114Z,76.84
2023-11-02T17:51:30.881Z,76.29
2023-11-02T17:54:34.459Z,76.76
2023-11-02T17:57:38.493Z,76.43
2023-11-02T18:00:41.595Z,76.64
2023-11-02T18:03:44.240Z,76.89
2023-11-02T18:06:46.897Z,76.24
2023-11-02T18:09:49.817Z,76.00
2023-11-02T18:12:53.783Z,75.87
2023-11-02T18:15:56.440Z,76.91
2023-11-02T18:19:00.276Z,76.73
2023-11-02T18:22:03.012Z,77.94
2023-11-02T18:25:06.232Z,77.44
2023-11-02T18:28:10.209Z,77.36
2023-11-02T18:31:12.916Z,77.04
2023-11-02T18:34:15.602Z,77.11
2023-11-02T18:37:18.480Z,77.42
2023-11-02T18:40:21.125Z,76.90
2023-11-02T18:43:26.573Z,76.99
2023-11-02T18:46:30.522Z,77.47
2023-11-02T18:49:36.261Z,78.36
2023-11-02T18:52:38.934Z,79.01
2023-11-02T18:55:43.086Z,79.46
2023-11-02T18:58:47.155Z,79.48
2023-11-02T19:01:52.954Z,79.36
2023-11-02T19:04:55.566Z,80.77
2023-11-02T19:07:58.142Z,80.28
2023-11-02T19:11:05.029Z,81.29
2023-11-02T19:14:10.188Z,82.03
2023-11-02T19:17:12.775Z,83.02
2023-11-02T19:20:15.425Z,83.27
2023-11-02T19:23:19.009Z,84.08
2023-11-02T19:26:22.872Z,84.55
2023-11-02T19:29:26.839Z,84.86
2023-11-02T19:32:31.393Z,85.39
2023-11-02T19:35:34.014Z,85.99
2023-11-02T19:38:36.624Z,86.58
2023-11-02T19:41:40.431Z,86.63
2023-11-02T19:44:44.411Z,87.31
2023-11-02T19:47:47.546Z,87.66
2023-11-02T19:50:52.752Z,87.84
2023-11-02T19:53:56.911Z,88.36
2023-11-02T19:56:59.540Z,88.61
2023-11-02T20:00:03.899Z,89.00
2023-11-02T20:03:06.697Z,89.37
2023-11-02T20:06:11.412Z,89.92
2023-11-02T20:09:14.905Z,90.68
2023-11-02T20:12:17.550Z,91.20
2023-11-02T20:15:21.584Z,91.88
2023-11-02T20:18:24.241Z,91.96
2023-11-02T20:21:26.840Z,92.45
2023-11-02T20:24:29.505Z,92.87
2023-11-02T20:27:32.146Z,93.17
2023-11-02T20:30:36.185Z,93.23
2023-11-02T20:33:38.860Z,93.42
2023-11-02T20:36:41.609Z,93.83
2023-11-02T20:39:44.227Z,94.15
2023-11-02T20:42:46.849Z,93.96
2023-11-02T20:45:51.054Z,94.57
2023-11-02T20:48:54.242Z,94.57
2023-11-02T20:51:57.131Z,94.75
2023-11-02T20:54:59.866Z,94.62
2023-11-02T20:58:02.493Z,95.04
2023-11-02T21:01:06.947Z,95.08
2023-11-02T21:04:09.578Z,95.32
2023-11-02T21:07:12.279Z,95.27
2023-11-02T21:10:15.377Z,95.63
2023-11-02T21:13:19.213Z,95.72
2023-11-02T21:16:23.658Z,96.03
2023-11-02T21:19:26.342Z,96.25
2023-11-02T21:22:28.977Z,96.29
2023-11-02T21:25:31.643Z,96.52
2023-11-02T21:28:34.213Z,96.71
2023-11-02T21:31:38.205Z,96.34
2023-11-02T21:34:42.865Z,96.69
2023-11-02T21:37:51.504Z,96.70
2023-11-02T21:40:54.433Z,96.88
2023-11-02T21:43:57.132Z,97.15
2023-11-02T21:47:01.094Z,97.12
2023-11-02T21:50:04.558Z,97.36
2023-11-02T21:53:07.161Z,97.46
2023-11-02T21:56:09.897Z,97.68
2023-11-02T21:59:13.175Z,97.99
2023-11-02T22:02:17.782Z,97.91
2023-11-02T22:05:20.432Z,98.12
2023-11-02T22:08:23.943Z,98.10
2023-11-02T22:11:26.666Z,98.35
2023-11-02T22:14:29.269Z,98.56
2023-11-02T22:17:33.238Z,98.40
2023-11-02T22:20:35.868Z,98.98
2023-11-02T22:23:38.448Z,98.84
2023-11-02T22:26:41.116Z,98.67
2023-11-02T22:29:43.692Z,98.99
2023-11-02T22:32:47.649Z,98.86
2023-11-02T22:35:50.223Z,98.97
2023-11-02T22:38:53.114Z,98.88
2023-11-02T22:41:55.841Z,98.84
2023-11-02T22:44:58.477Z,99.11
2023-11-02T22:48:02.879Z,99.05
2023-11-02T22:51:06.334Z,99.09
2023-11-02T22:54:08.990Z,99.30
2023-11-02T22:57:11.561Z,98.99
2023-11-02T23:00:24.935Z,99.22
2023-11-02T23:03:29.585Z,99.11
2023-11-02T23:06:32.251Z,99.24
2023-11-02T23:09:35.086Z,99.14
2023-11-02T23:12:37.755Z,99.19
2023-11-02T23:15:40.560Z,99.35
2023-11-02T23:18:45.384Z,99.76
2023-11-02T23:21:48.284Z,99.28
2023-11-02T23:24:50.964Z,99.18
2023-11-02T23:27:54.210Z,99.13
2023-11-02T23:30:56.860Z,99.36
2023-11-02T23:34:00.938Z,99.22
2023-11-02T23:37:03.799Z,99.12
2023-11-02T23:40:07.845Z,99.14
2023-11-02T23:43:10.975Z,99.20
2023-11-02T23:46:15.272Z,99.14
2023-11-02T23:49:19.268Z,99.42
2023-11-02T23:52:21.873Z,99.06
2023-11-02T23:55:25.328Z,99.33
2023-11-02T23:58:27.974Z,99.31
